sensor_id;sensor_type;location;lat;lon;timestamp;pressure;altitude;pressure_sealevel;temperature
71463;BMP180;59266;52.608;13.260;2023-02-24T00:02:11;100550.00;;;6.80
71463;BMP180;59266;52.608;13.260;2023-02-24T00:04:40;100543.00;;;6.90
71463;BMP180;59266;52.608;13.260;2023-02-24T00:07:08;100553.00;;;6.90
71463;BMP180;59266;52.608;13.260;2023-02-24T00:09:36;100550.00;;;6.90
71463;BMP180;59266;52.608;13.260;2023-02-24T00:12:09;100543.00;;;7.00
71463;BMP180;59266;52.608;13.260;2023-02-24T00:14:38;100548.00;;;7.00
71463;BMP180;59266;52.608;13.260;2023-02-24T00:17:06;100541.00;;;6.90
71463;BMP180;59266;52.608;13.260;2023-02-24T00:19:35;100540.00;;;6.90
71463;BMP180;59266;52.608;13.260;2023-02-24T00:22:04;100536.00;;;6.80
71463;BMP180;59266;52.608;13.260;2023-02-24T00:24:31;100539.00;;;6.80
71463;BMP180;59266;52.608;13.260;2023-02-24T00:27:00;100536.00;;;6.70
71463;BMP180;59266;52.608;13.260;2023-02-24T00:29:28;100547.00;;;6.80
71463;BMP180;59266;52.608;13.260;2023-02-24T00:31:56;100537.00;;;6.80
71463;BMP180;59266;52.608;13.260;2023-02-24T00:34:31;100542.00;;;6.70
71463;BMP180;59266;52.608;13.260;2023-02-24T00:36:59;100539.00;;;6.70
71463;BMP180;59266;52.608;13.260;2023-02-24T00:39:27;100540.00;;;6.60
71463;BMP180;59266;52.608;13.260;2023-02-24T00:41:56;100534.00;;;6.60
71463;BMP180;59266;52.608;13.260;2023-02-24T00:44:38;100523.00;;;6.50
71463;BMP180;59266;52.608;13.260;2023-02-24T00:47:07;100530.00;;;6.30
71463;BMP180;59266;52.608;13.260;2023-02-24T00:49:37;100527.00;;;6.30
71463;BMP180;59266;52.608;13.260;2023-02-24T00:52:13;100542.00;;;6.20
71463;BMP180;59266;52.608;13.260;2023-02-24T00:54:41;100536.00;;;6.20
71463;BMP180;59266;52.608;13.260;2023-02-24T00:57:09;100536.00;;;6.10
71463;BMP180;59266;52.608;13.260;2023-02-24T00:59:37;100534.00;;;6.00
71463;BMP180;59266;52.608;13.260;2023-02-24T01:02:05;100531.00;;;6.00
71463;BMP180;59266;52.608;13.260;2023-02-24T01:04:33;100529.00;;;5.90
71463;BMP180;59266;52.608;13.260;2023-02-24T01:06:59;100524.00;;;5.80
71463;BMP180;59266;52.608;13.260;2023-02-24T01:09:30;100522.00;;;5.70
71463;BMP180;59266;52.608;13.260;2023-02-24T01:11:57;100528.00;;;5.60
71463;BMP180;59266;52.608;13.260;2023-02-24T01:14:49;100519.00;;;5.50
71463;BMP180;59266;52.608;13.260;2023-02-24T01:17:17;100518.00;;;5.50
71463;BMP180;59266;52.608;13.260;2023-02-24T01:19:45;100529.00;;;5.40
71463;BMP180;59266;52.608;13.260;2023-02-24T01:22:15;100524.00;;;5.40
71463;BMP180;59266;52.608;13.260;2023-02-24T01:24:43;100532.00;;;5.50
71463;BMP180;59266;52.608;13.260;2023-02-24T01:27:14;100533.00;;;5.40
71463;BMP180;59266;52.608;13.260;2023-02-24T01:29:43;100523.00;;;5.20
71463;BMP180;59266;52.608;13.260;2023-02-24T01:32:19;100530.00;;;5.10
71463;BMP180;59266;52.608;13.260;2023-02-24T01:34:50;100516.00;;;5.10
71463;BMP180;59266;52.608;13.260;2023-02-24T01:37:17;100519.00;;;5.00
71463;BMP180;59266;52.608;13.260;2023-02-24T01:39:45;100520.00;;;4.90
71463;BMP180;59266;52.608;13.260;2023-02-24T01:42:15;100519.00;;;4.80
71463;BMP180;59266;52.608;13.260;2023-02-24T01:47:11;100505.00;;;4.80
71463;BMP180;59266;52.608;13.260;2023-02-24T01:49:42;100510.00;;;4.80
71463;BMP180;59266;52.608;13.260;2023-02-24T01:54:41;100506.00;;;4.60
71463;BMP180;59266;52.608;13.260;2023-02-24T01:57:12;100503.00;;;4.80
71463;BMP180;59266;52.608;13.260;2023-02-24T01:59:43;100494.00;;;4.80
71463;BMP180;59266;52.608;13.260;2023-02-24T02:02:13;100492.00;;;4.90
71463;BMP180;59266;52.608;13.260;2023-02-24T02:04:50;100495.00;;;4.80
71463;BMP180;59266;52.608;13.260;2023-02-24T02:07:20;100496.00;;;4.60
71463;BMP180;59266;52.608;13.260;2023-02-24T02:09:48;100493.00;;;4.50
71463;BMP180;59266;52.608;13.260;2023-02-24T02:12:15;100503.00;;;4.40
71463;BMP180;59266;52.608;13.260;2023-02-24T02:14:46;100491.00;;;4.40
71463;BMP180;59266;52.608;13.260;2023-02-24T02:17:30;100497.00;;;4.40
71463;BMP180;59266;52.608;13.260;2023-02-24T02:23:24;100490.00;;;4.40
71463;BMP180;59266;52.608;13.260;2023-02-24T02:29:44;100481.00;;;4.10
71463;BMP180;59266;52.608;13.260;2023-02-24T02:35:14;100495.00;;;4.20
71463;BMP180;59266;52.608;13.260;2023-02-24T02:40:47;100475.00;;;4.00
71463;BMP180;59266;52.608;13.260;2023-02-24T02:43:37;100474.00;;;4.00
71463;BMP180;59266;52.608;13.260;2023-02-24T02:46:16;100470.00;;;3.90
71463;BMP180;59266;52.608;13.260;2023-02-24T02:48:56;100460.00;;;4.00
71463;BMP180;59266;52.608;13.260;2023-02-24T02:51:29;100464.00;;;3.90
71463;BMP180;59266;52.608;13.260;2023-02-24T02:54:08;100471.00;;;3.90
71463;BMP180;59266;52.608;13.260;2023-02-24T02:56:45;100468.00;;;3.90
71463;BMP180;59266;52.608;13.260;2023-02-24T02:59:16;100476.00;;;3.80
71463;BMP180;59266;52.608;13.260;2023-02-24T03:01:50;100469.00;;;3.80
71463;BMP180;59266;52.608;13.260;2023-02-24T03:04:20;100460.00;;;3.80
71463;BMP180;59266;52.608;13.260;2023-02-24T03:06:52;100463.00;;;3.80
71463;BMP180;59266;52.608;13.260;2023-02-24T03:09:28;100462.00;;;3.80
71463;BMP180;59266;52.608;13.260;2023-02-24T03:11:59;100474.00;;;3.80
71463;BMP180;59266;52.608;13.260;2023-02-24T03:14:30;100465.00;;;3.90
71463;BMP180;59266;52.608;13.260;2023-02-24T03:16:58;100453.00;;;3.80
71463;BMP180;59266;52.608;13.260;2023-02-24T03:19:31;100453.00;;;3.70
71463;BMP180;59266;52.608;13.260;2023-02-24T03:22:14;100446.00;;;3.80
71463;BMP180;59266;52.608;13.260;2023-02-24T03:24:43;100445.00;;;3.70
71463;BMP180;59266;52.608;13.260;2023-02-24T03:27:12;100445.00;;;3.70
71463;BMP180;59266;52.608;13.260;2023-02-24T03:29:59;100446.00;;;3.80
71463;BMP180;59266;52.608;13.260;2023-02-24T03:32:40;100434.00;;;3.70
71463;BMP180;59266;52.608;13.260;2023-02-24T03:35:20;100450.00;;;3.80
71463;BMP180;59266;52.608;13.260;2023-02-24T03:37:48;100437.00;;;3.70
71463;BMP180;59266;52.608;13.260;2023-02-24T03:40:16;100434.00;;;3.80
71463;BMP180;59266;52.608;13.260;2023-02-24T03:42:46;100440.00;;;3.80
71463;BMP180;59266;52.608;13.260;2023-02-24T03:45:15;100430.00;;;3.80
71463;BMP180;59266;52.608;13.260;2023-02-24T03:47:42;100417.00;;;3.90
71463;BMP180;59266;52.608;13.260;2023-02-24T03:50:19;100408.00;;;3.80
71463;BMP180;59266;52.608;13.260;2023-02-24T04:01:53;100403.00;;;3.80
71463;BMP180;59266;52.608;13.260;2023-02-24T04:04:06;100403.00;;;3.80
71463;BMP180;59266;52.608;13.260;2023-02-24T04:06:59;100397.00;;;3.70
71463;BMP180;59266;52.608;13.260;2023-02-24T04:09:28;100402.00;;;3.80
71463;BMP180;59266;52.608;13.260;2023-02-24T04:12:13;100407.00;;;3.70
71463;BMP180;59266;52.608;13.260;2023-02-24T04:17:47;100395.00;;;3.70
71463;BMP180;59266;52.608;13.260;2023-02-24T04:20:20;100398.00;;;3.70
71463;BMP180;59266;52.608;13.260;2023-02-24T04:23:37;100389.00;;;3.70
71463;BMP180;59266;52.608;13.260;2023-02-24T04:25:51;100382.00;;;3.90
71463;BMP180;59266;52.608;13.260;2023-02-24T04:28:20;100370.00;;;3.80
71463;BMP180;59266;52.608;13.260;2023-02-24T04:30:50;100373.00;;;3.90
71463;BMP180;59266;52.608;13.260;2023-02-24T04:33:22;100359.00;;;3.80
71463;BMP180;59266;52.608;13.260;2023-02-24T04:35:49;100363.00;;;3.70
71463;BMP180;59266;52.608;13.260;2023-02-24T04:38:17;100371.00;;;3.70
71463;BMP180;59266;52.608;13.260;2023-02-24T04:40:44;100367.00;;;3.70
71463;BMP180;59266;52.608;13.260;2023-02-24T04:43:11;100347.00;;;3.70
71463;BMP180;59266;52.608;13.260;2023-02-24T04:45:38;100356.00;;;3.80
71463;BMP180;59266;52.608;13.260;2023-02-24T04:48:06;100362.00;;;3.80
71463;BMP180;59266;52.608;13.260;2023-02-24T04:50:41;100352.00;;;3.70
71463;BMP180;59266;52.608;13.260;2023-02-24T04:53:11;100349.00;;;3.70
71463;BMP180;59266;52.608;13.260;2023-02-24T04:55:40;100348.00;;;3.70
71463;BMP180;59266;52.608;13.260;2023-02-24T04:58:12;100342.00;;;3.70
71463;BMP180;59266;52.608;13.260;2023-02-24T05:00:39;100340.00;;;3.60
71463;BMP180;59266;52.608;13.260;2023-02-24T05:03:09;100340.00;;;3.70
71463;BMP180;59266;52.608;13.260;2023-02-24T05:05:37;100335.00;;;3.70
71463;BMP180;59266;52.608;13.260;2023-02-24T05:08:06;100322.00;;;3.70
71463;BMP180;59266;52.608;13.260;2023-02-24T05:10:41;100314.00;;;3.60
71463;BMP180;59266;52.608;13.260;2023-02-24T05:13:26;100322.00;;;3.70
71463;BMP180;59266;52.608;13.260;2023-02-24T05:15:59;100316.00;;;3.70
71463;BMP180;59266;52.608;13.260;2023-02-24T05:18:28;100314.00;;;3.70
71463;BMP180;59266;52.608;13.260;2023-02-24T05:21:13;100305.00;;;3.70
71463;BMP180;59266;52.608;13.260;2023-02-24T05:23:59;100299.00;;;3.80
71463;BMP180;59266;52.608;13.260;2023-02-24T05:26:36;100301.00;;;3.70
71463;BMP180;59266;52.608;13.260;2023-02-24T05:29:05;100299.00;;;3.60
71463;BMP180;59266;52.608;13.260;2023-02-24T05:31:33;100300.00;;;3.60
71463;BMP180;59266;52.608;13.260;2023-02-24T05:34:05;100297.00;;;3.60
71463;BMP180;59266;52.608;13.260;2023-02-24T05:36:38;100287.00;;;3.60
71463;BMP180;59266;52.608;13.260;2023-02-24T05:39:07;100292.00;;;3.60
71463;BMP180;59266;52.608;13.260;2023-02-24T05:41:40;100296.00;;;3.60
71463;BMP180;59266;52.608;13.260;2023-02-24T05:44:11;100293.00;;;3.60
71463;BMP180;59266;52.608;13.260;2023-02-24T05:46:42;100285.00;;;3.60
71463;BMP180;59266;52.608;13.260;2023-02-24T05:49:13;100288.00;;;3.50
71463;BMP180;59266;52.608;13.260;2023-02-24T05:51:41;100285.00;;;3.60
71463;BMP180;59266;52.608;13.260;2023-02-24T05:56:50;100283.00;;;3.60
71463;BMP180;59266;52.608;13.260;2023-02-24T05:59:17;100283.00;;;3.70
71463;BMP180;59266;52.608;13.260;2023-02-24T06:01:48;100273.00;;;3.60
71463;BMP180;59266;52.608;13.260;2023-02-24T06:04:19;100279.00;;;3.60
71463;BMP180;59266;52.608;13.260;2023-02-24T06:06:47;100284.00;;;3.60
71463;BMP180;59266;52.608;13.260;2023-02-24T06:09:20;100266.00;;;3.60
71463;BMP180;59266;52.608;13.260;2023-02-24T06:11:48;100266.00;;;3.60
71463;BMP180;59266;52.608;13.260;2023-02-24T06:14:15;100257.00;;;3.50
71463;BMP180;59266;52.608;13.260;2023-02-24T06:16:43;100259.00;;;3.60
71463;BMP180;59266;52.608;13.260;2023-02-24T06:19:11;100260.00;;;3.50
71463;BMP180;59266;52.608;13.260;2023-02-24T06:21:39;100254.00;;;3.50
71463;BMP180;59266;52.608;13.260;2023-02-24T06:24:13;100248.00;;;3.50
71463;BMP180;59266;52.608;13.260;2023-02-24T06:26:44;100251.00;;;3.60
71463;BMP180;59266;52.608;13.260;2023-02-24T06:29:15;100242.00;;;3.60
71463;BMP180;59266;52.608;13.260;2023-02-24T06:31:43;100249.00;;;3.60
71463;BMP180;59266;52.608;13.260;2023-02-24T06:34:11;100242.00;;;3.70
71463;BMP180;59266;52.608;13.260;2023-02-24T06:36:44;100237.00;;;3.70
71463;BMP180;59266;52.608;13.260;2023-02-24T06:39:12;100228.00;;;3.60
71463;BMP180;59266;52.608;13.260;2023-02-24T06:41:40;100222.00;;;3.70
71463;BMP180;59266;52.608;13.260;2023-02-24T06:44:08;100232.00;;;3.70
71463;BMP180;59266;52.608;13.260;2023-02-24T06:46:35;100226.00;;;3.80
71463;BMP180;59266;52.608;13.260;2023-02-24T06:49:02;100222.00;;;3.70
71463;BMP180;59266;52.608;13.260;2023-02-24T06:51:29;100228.00;;;3.70
71463;BMP180;59266;52.608;13.260;2023-02-24T06:53:56;100218.00;;;3.80
71463;BMP180;59266;52.608;13.260;2023-02-24T06:56:26;100209.00;;;3.70
71463;BMP180;59266;52.608;13.260;2023-02-24T06:58:54;100213.00;;;3.80
71463;BMP180;59266;52.608;13.260;2023-02-24T07:01:25;100225.00;;;3.70
71463;BMP180;59266;52.608;13.260;2023-02-24T07:03:53;100212.00;;;3.70
71463;BMP180;59266;52.608;13.260;2023-02-24T07:06:54;100211.00;;;3.70
71463;BMP180;59266;52.608;13.260;2023-02-24T07:09:26;100203.00;;;3.80
71463;BMP180;59266;52.608;13.260;2023-02-24T07:11:53;100214.00;;;3.80
71463;BMP180;59266;52.608;13.260;2023-02-24T07:14:26;100208.00;;;3.80
71463;BMP180;59266;52.608;13.260;2023-02-24T07:16:53;100199.00;;;3.80
71463;BMP180;59266;52.608;13.260;2023-02-24T07:19:26;100188.00;;;3.90
71463;BMP180;59266;52.608;13.260;2023-02-24T07:21:59;100196.00;;;4.00
71463;BMP180;59266;52.608;13.260;2023-02-24T07:24:28;100201.00;;;3.90
71463;BMP180;59266;52.608;13.260;2023-02-24T07:27:04;100185.00;;;3.90
71463;BMP180;59266;52.608;13.260;2023-02-24T07:29:33;100175.00;;;3.90
71463;BMP180;59266;52.608;13.260;2023-02-24T07:32:03;100170.00;;;4.00
71463;BMP180;59266;52.608;13.260;2023-02-24T07:34:32;100180.00;;;3.90
71463;BMP180;59266;52.608;13.260;2023-02-24T07:37:00;100181.00;;;3.90
71463;BMP180;59266;52.608;13.260;2023-02-24T07:39:35;100153.00;;;4.00
71463;BMP180;59266;52.608;13.260;2023-02-24T07:42:03;100153.00;;;4.00
71463;BMP180;59266;52.608;13.260;2023-02-24T07:44:32;100167.00;;;3.90
71463;BMP180;59266;52.608;13.260;2023-02-24T07:47:00;100143.00;;;4.00
71463;BMP180;59266;52.608;13.260;2023-02-24T07:49:34;100151.00;;;4.20
71463;BMP180;59266;52.608;13.260;2023-02-24T07:52:02;100141.00;;;4.20
71463;BMP180;59266;52.608;13.260;2023-02-24T07:54:29;100131.00;;;4.20
71463;BMP180;59266;52.608;13.260;2023-02-24T07:56:57;100124.00;;;4.10
71463;BMP180;59266;52.608;13.260;2023-02-24T07:59:29;100121.00;;;4.10
71463;BMP180;59266;52.608;13.260;2023-02-24T08:01:58;100119.00;;;4.20
71463;BMP180;59266;52.608;13.260;2023-02-24T08:04:27;100100.00;;;4.20
71463;BMP180;59266;52.608;13.260;2023-02-24T08:06:56;100105.00;;;4.30
71463;BMP180;59266;52.608;13.260;2023-02-24T08:09:27;100106.00;;;4.30
71463;BMP180;59266;52.608;13.260;2023-02-24T08:12:34;100100.00;;;4.40
71463;BMP180;59266;52.608;13.260;2023-02-24T08:15:01;100104.00;;;4.40
71463;BMP180;59266;52.608;13.260;2023-02-24T08:17:43;100106.00;;;4.30
71463;BMP180;59266;52.608;13.260;2023-02-24T08:20:14;100091.00;;;4.30
71463;BMP180;59266;52.608;13.260;2023-02-24T08:22:43;100079.00;;;4.50
71463;BMP180;59266;52.608;13.260;2023-02-24T08:25:13;100078.00;;;4.50
71463;BMP180;59266;52.608;13.260;2023-02-24T08:27:46;100069.00;;;4.70
71463;BMP180;59266;52.608;13.260;2023-02-24T08:30:37;100068.00;;;4.60
71463;BMP180;59266;52.608;13.260;2023-02-24T08:33:08;100069.00;;;4.80
71463;BMP180;59266;52.608;13.260;2023-02-24T08:35:37;100064.00;;;4.90
71463;BMP180;59266;52.608;13.260;2023-02-24T08:38:10;100061.00;;;4.90
71463;BMP180;59266;52.608;13.260;2023-02-24T08:40:43;100055.00;;;4.90
71463;BMP180;59266;52.608;13.260;2023-02-24T08:48:49;100048.00;;;5.10
71463;BMP180;59266;52.608;13.260;2023-02-24T08:51:32;100047.00;;;4.80
71463;BMP180;59266;52.608;13.260;2023-02-24T08:54:06;100032.00;;;5.10
71463;BMP180;59266;52.608;13.260;2023-02-24T08:56:37;100035.00;;;4.90
71463;BMP180;59266;52.608;13.260;2023-02-24T08:59:13;100029.00;;;5.00
71463;BMP180;59266;52.608;13.260;2023-02-24T09:01:59;100010.00;;;5.20
71463;BMP180;59266;52.608;13.260;2023-02-24T09:04:56;100019.00;;;5.40
71463;BMP180;59266;52.608;13.260;2023-02-24T09:07:28;100015.00;;;5.40
71463;BMP180;59266;52.608;13.260;2023-02-24T09:09:58;99998.00;;;5.30
71463;BMP180;59266;52.608;13.260;2023-02-24T09:12:28;100002.00;;;5.40
71463;BMP180;59266;52.608;13.260;2023-02-24T09:14:58;99991.00;;;5.50
71463;BMP180;59266;52.608;13.260;2023-02-24T09:17:31;99994.00;;;5.60
71463;BMP180;59266;52.608;13.260;2023-02-24T09:20:22;99993.00;;;5.60
71463;BMP180;59266;52.608;13.260;2023-02-24T09:23:24;99989.00;;;5.70
71463;BMP180;59266;52.608;13.260;2023-02-24T09:26:12;99985.00;;;5.70
71463;BMP180;59266;52.608;13.260;2023-02-24T09:28:41;99972.00;;;5.70
71463;BMP180;59266;52.608;13.260;2023-02-24T09:31:14;99975.00;;;5.70
71463;BMP180;59266;52.608;13.260;2023-02-24T09:33:44;99969.00;;;5.80
71463;BMP180;59266;52.608;13.260;2023-02-24T09:36:17;99974.00;;;5.70
71463;BMP180;59266;52.608;13.260;2023-02-24T09:38:57;99954.00;;;5.70
71463;BMP180;59266;52.608;13.260;2023-02-24T09:41:45;99954.00;;;6.00
71463;BMP180;59266;52.608;13.260;2023-02-24T09:44:41;99947.00;;;5.80
71463;BMP180;59266;52.608;13.260;2023-02-24T09:47:43;99954.00;;;6.10
71463;BMP180;59266;52.608;13.260;2023-02-24T09:50:31;99950.00;;;6.20
71463;BMP180;59266;52.608;13.260;2023-02-24T09:53:32;99936.00;;;6.00
71463;BMP180;59266;52.608;13.260;2023-02-24T09:56:31;99941.00;;;5.90
71463;BMP180;59266;52.608;13.260;2023-02-24T09:59:17;99950.00;;;5.90
71463;BMP180;59266;52.608;13.260;2023-02-24T10:02:02;99924.00;;;6.00
71463;BMP180;59266;52.608;13.260;2023-02-24T10:04:55;99938.00;;;6.20
71463;BMP180;59266;52.608;13.260;2023-02-24T10:07:37;99932.00;;;6.20
71463;BMP180;59266;52.608;13.260;2023-02-24T10:10:22;99924.00;;;6.30
71463;BMP180;59266;52.608;13.260;2023-02-24T10:13:15;99920.00;;;6.30
71463;BMP180;59266;52.608;13.260;2023-02-24T10:15:47;99917.00;;;6.10
71463;BMP180;59266;52.608;13.260;2023-02-24T10:18:37;99924.00;;;5.80
71463;BMP180;59266;52.608;13.260;2023-02-24T10:26:51;99903.00;;;5.90
71463;BMP180;59266;52.608;13.260;2023-02-24T10:32:54;99903.00;;;5.80
71463;BMP180;59266;52.608;13.260;2023-02-24T10:35:27;99892.00;;;5.80
71463;BMP180;59266;52.608;13.260;2023-02-24T10:38:00;99911.00;;;5.50
71463;BMP180;59266;52.608;13.260;2023-02-24T10:40:32;99898.00;;;5.40
71463;BMP180;59266;52.608;13.260;2023-02-24T10:43:19;99892.00;;;5.00
71463;BMP180;59266;52.608;13.260;2023-02-24T10:45:57;99892.00;;;5.30
71463;BMP180;59266;52.608;13.260;2023-02-24T10:48:33;99883.00;;;5.00
71463;BMP180;59266;52.608;13.260;2023-02-24T10:51:18;99889.00;;;5.20
71463;BMP180;59266;52.608;13.260;2023-02-24T10:53:49;99878.00;;;4.80
71463;BMP180;59266;52.608;13.260;2023-02-24T10:56:40;99880.00;;;4.80
71463;BMP180;59266;52.608;13.260;2023-02-24T10:59:15;99868.00;;;4.80
71463;BMP180;59266;52.608;13.260;2023-02-24T11:02:23;99857.00;;;4.70
71463;BMP180;59266;52.608;13.260;2023-02-24T11:05:05;99866.00;;;4.60
71463;BMP180;59266;52.608;13.260;2023-02-24T11:08:13;99855.00;;;4.40
71463;BMP180;59266;52.608;13.260;2023-02-24T11:10:58;99843.00;;;4.50
71463;BMP180;59266;52.608;13.260;2023-02-24T11:13:32;99851.00;;;4.60
71463;BMP180;59266;52.608;13.260;2023-02-24T11:16:18;99851.00;;;4.60
71463;BMP180;59266;52.608;13.260;2023-02-24T11:19:17;99832.00;;;4.30
71463;BMP180;59266;52.608;13.260;2023-02-24T11:21:43;99828.00;;;4.10
71463;BMP180;59266;52.608;13.260;2023-02-24T11:24:18;99822.00;;;3.90
71463;BMP180;59266;52.608;13.260;2023-02-24T11:26:44;99820.00;;;3.90
71463;BMP180;59266;52.608;13.260;2023-02-24T11:29:32;99808.00;;;4.00
71463;BMP180;59266;52.608;13.260;2023-02-24T11:34:59;99792.00;;;4.00
71463;BMP180;59266;52.608;13.260;2023-02-24T11:37:45;99793.00;;;4.00
71463;BMP180;59266;52.608;13.260;2023-02-24T11:40:16;99793.00;;;3.80
71463;BMP180;59266;52.608;13.260;2023-02-24T11:42:57;99770.00;;;4.00
71463;BMP180;59266;52.608;13.260;2023-02-24T11:48:10;99762.00;;;4.00
71463;BMP180;59266;52.608;13.260;2023-02-24T11:50:45;99751.00;;;3.90
71463;BMP180;59266;52.608;13.260;2023-02-24T11:53:36;99762.00;;;3.90
71463;BMP180;59266;52.608;13.260;2023-02-24T12:01:56;99743.00;;;3.70
71463;BMP180;59266;52.608;13.260;2023-02-24T12:04:36;99732.00;;;3.70
71463;BMP180;59266;52.608;13.260;2023-02-24T12:09:45;99726.00;;;3.80
71463;BMP180;59266;52.608;13.260;2023-02-24T12:12:19;99715.00;;;3.70
71463;BMP180;59266;52.608;13.260;2023-02-24T12:14:51;99718.00;;;3.70
71463;BMP180;59266;52.608;13.260;2023-02-24T12:17:36;99706.00;;;3.50
71463;BMP180;59266;52.608;13.260;2023-02-24T12:20:04;99708.00;;;3.50
71463;BMP180;59266;52.608;13.260;2023-02-24T12:22:57;99719.00;;;3.40
71463;BMP180;59266;52.608;13.260;2023-02-24T12:25:53;99702.00;;;3.20
71463;BMP180;59266;52.608;13.260;2023-02-24T12:31:18;99693.00;;;3.30
71463;BMP180;59266;52.608;13.260;2023-02-24T12:34:04;99693.00;;;3.40
71463;BMP180;59266;52.608;13.260;2023-02-24T12:36:59;99688.00;;;3.10
71463;BMP180;59266;52.608;13.260;2023-02-24T12:39:50;99680.00;;;3.10
71463;BMP180;59266;52.608;13.260;2023-02-24T12:42:50;99671.00;;;3.20
71463;BMP180;59266;52.608;13.260;2023-02-24T12:45:30;99663.00;;;3.20
71463;BMP180;59266;52.608;13.260;2023-02-24T12:48:31;99656.00;;;3.00
71463;BMP180;59266;52.608;13.260;2023-02-24T12:51:05;99647.00;;;2.80
71463;BMP180;59266;52.608;13.260;2023-02-24T12:57:10;99631.00;;;2.90
71463;BMP180;59266;52.608;13.260;2023-02-24T12:59:40;99626.00;;;3.00
71463;BMP180;59266;52.608;13.260;2023-02-24T13:02:42;99627.00;;;3.00
71463;BMP180;59266;52.608;13.260;2023-02-24T13:05:28;99606.00;;;2.90
71463;BMP180;59266;52.608;13.260;2023-02-24T13:11:19;99609.00;;;3.10
71463;BMP180;59266;52.608;13.260;2023-02-24T13:13:58;99598.00;;;3.00
71463;BMP180;59266;52.608;13.260;2023-02-24T13:16:32;99607.00;;;3.00
71463;BMP180;59266;52.608;13.260;2023-02-24T13:19:20;99599.00;;;3.00
71463;BMP180;59266;52.608;13.260;2023-02-24T13:22:00;99596.00;;;3.10
71463;BMP180;59266;52.608;13.260;2023-02-24T13:24:28;99585.00;;;3.00
71463;BMP180;59266;52.608;13.260;2023-02-24T13:27:23;99588.00;;;3.00
71463;BMP180;59266;52.608;13.260;2023-02-24T13:29:59;99588.00;;;2.90
71463;BMP180;59266;52.608;13.260;2023-02-24T13:32:32;99579.00;;;2.90
71463;BMP180;59266;52.608;13.260;2023-02-24T13:37:45;99568.00;;;3.00
71463;BMP180;59266;52.608;13.260;2023-02-24T13:45:35;99568.00;;;3.00
71463;BMP180;59266;52.608;13.260;2023-02-24T13:51:34;99562.00;;;2.90
71463;BMP180;59266;52.608;13.260;2023-02-24T13:54:21;99537.00;;;2.90
71463;BMP180;59266;52.608;13.260;2023-02-24T13:56:56;99529.00;;;2.90
71463;BMP180;59266;52.608;13.260;2023-02-24T13:59:42;99544.00;;;2.90
71463;BMP180;59266;52.608;13.260;2023-02-24T14:02:14;99518.00;;;3.00
71463;BMP180;59266;52.608;13.260;2023-02-24T14:04:48;99525.00;;;3.10
71463;BMP180;59266;52.608;13.260;2023-02-24T14:07:21;99527.00;;;3.00
71463;BMP180;59266;52.608;13.260;2023-02-24T14:10:16;99511.00;;;3.00
71463;BMP180;59266;52.608;13.260;2023-02-24T14:12:45;99510.00;;;3.10
71463;BMP180;59266;52.608;13.260;2023-02-24T14:15:18;99507.00;;;3.10
71463;BMP180;59266;52.608;13.260;2023-02-24T14:17:55;99494.00;;;3.10
71463;BMP180;59266;52.608;13.260;2023-02-24T14:20:23;99511.00;;;3.10
71463;BMP180;59266;52.608;13.260;2023-02-24T14:22:53;99495.00;;;3.20
71463;BMP180;59266;52.608;13.260;2023-02-24T14:25:22;99496.00;;;3.10
71463;BMP180;59266;52.608;13.260;2023-02-24T14:27:51;99496.00;;;3.10
71463;BMP180;59266;52.608;13.260;2023-02-24T14:30:26;99508.00;;;3.00
71463;BMP180;59266;52.608;13.260;2023-02-24T14:32:59;99494.00;;;3.10
71463;BMP180;59266;52.608;13.260;2023-02-24T14:35:39;99494.00;;;3.10
71463;BMP180;59266;52.608;13.260;2023-02-24T14:38:36;99489.00;;;3.10
71463;BMP180;59266;52.608;13.260;2023-02-24T14:41:20;99475.00;;;3.20
71463;BMP180;59266;52.608;13.260;2023-02-24T14:43:55;99475.00;;;3.10
71463;BMP180;59266;52.608;13.260;2023-02-24T14:46:24;99476.00;;;3.20
71463;BMP180;59266;52.608;13.260;2023-02-24T14:48:54;99482.00;;;3.10
71463;BMP180;59266;52.608;13.260;2023-02-24T14:51:29;99470.00;;;3.10
71463;BMP180;59266;52.608;13.260;2023-02-24T14:54:02;99468.00;;;3.20
71463;BMP180;59266;52.608;13.260;2023-02-24T14:56:34;99467.00;;;3.10
71463;BMP180;59266;52.608;13.260;2023-02-24T15:01:55;99456.00;;;3.00
71463;BMP180;59266;52.608;13.260;2023-02-24T15:04:36;99454.00;;;3.10
71463;BMP180;59266;52.608;13.260;2023-02-24T15:07:11;99447.00;;;3.10
71463;BMP180;59266;52.608;13.260;2023-02-24T15:09:44;99441.00;;;3.10
71463;BMP180;59266;52.608;13.260;2023-02-24T15:15:12;99431.00;;;3.20
71463;BMP180;59266;52.608;13.260;2023-02-24T15:17:43;99423.00;;;3.10
71463;BMP180;59266;52.608;13.260;2023-02-24T15:22:54;99416.00;;;3.10
71463;BMP180;59266;52.608;13.260;2023-02-24T15:28:27;99397.00;;;3.10
71463;BMP180;59266;52.608;13.260;2023-02-24T15:31:01;99397.00;;;3.10
71463;BMP180;59266;52.608;13.260;2023-02-24T15:33:38;99401.00;;;3.10
71463;BMP180;59266;52.608;13.260;2023-02-24T15:36:16;99385.00;;;3.10
71463;BMP180;59266;52.608;13.260;2023-02-24T15:38:45;99386.00;;;3.10
71463;BMP180;59266;52.608;13.260;2023-02-24T15:41:13;99377.00;;;2.90
71463;BMP180;59266;52.608;13.260;2023-02-24T15:48:46;99360.00;;;3.00
71463;BMP180;59266;52.608;13.260;2023-02-24T15:51:36;99370.00;;;3.00
71463;BMP180;59266;52.608;13.260;2023-02-24T15:54:07;99354.00;;;3.00
71463;BMP180;59266;52.608;13.260;2023-02-24T15:56:36;99355.00;;;3.10
71463;BMP180;59266;52.608;13.260;2023-02-24T15:59:03;99361.00;;;3.00
71463;BMP180;59266;52.608;13.260;2023-02-24T16:01:35;99355.00;;;3.00
71463;BMP180;59266;52.608;13.260;2023-02-24T16:04:09;99348.00;;;3.10
71463;BMP180;59266;52.608;13.260;2023-02-24T16:06:38;99345.00;;;3.00
71463;BMP180;59266;52.608;13.260;2023-02-24T16:09:31;99344.00;;;3.10
71463;BMP180;59266;52.608;13.260;2023-02-24T16:12:09;99349.00;;;3.20
71463;BMP180;59266;52.608;13.260;2023-02-24T16:14:42;99327.00;;;3.20
71463;BMP180;59266;52.608;13.260;2023-02-24T16:17:29;99328.00;;;3.20
71463;BMP180;59266;52.608;13.260;2023-02-24T16:20:01;99324.00;;;3.10
71463;BMP180;59266;52.608;13.260;2023-02-24T16:22:27;99326.00;;;3.10
71463;BMP180;59266;52.608;13.260;2023-02-24T16:24:54;99326.00;;;3.10